Ksar Chellala, Algérie

13:19 CET le 03 juillet 2015 (GMT +0100)
A. Boussouf Ain Bouchekif | | Change Station
CLOSE
Current Station
Aéroport
Location: Tiaret,
Altitude: 3245 ft
Stations météo à proximité

Alt. 3245 ft 35.34 °N, 1.46 °E | Updated 19 minutes ago

Partly Cloudy
Partiellement nuageux
100 ° F
Paraît 100 ° F
N
13
Vent Variable Vent de Est

Aujourd'hui
Haut(e) -- | Bas -- ° F
--% Risque de précip.
Hier
Haut(e) -- | Bas -- ° F
Precip. -- pouce
5:40 AM 8:08 PM
Pleine lune, 97% visible
Pression 30.21 pouce
Visibilité 6.2 Miles terrestres
Nuages Peu 2300 ft
Point de rosée 43 ° F
Humidité 14%
Précipitations 0.00 pouce
Profondeur de la couche neigeuse Non disponible.
UV 13 sur 12
Pollen Non disponible.
Qualité de l'air Non disponible.
Flu Activity Non disponible.
METAR DAOB 031200Z 10011KT 9999 FEW023 38/06 Q1023

More Conditions Fewer Conditions

Pression 30.21 pouce
Visibilité 6.2 Miles terrestres
Nuages Peu 2300 ft
Point de rosée 43 ° F
Humidité 14%
Précipitations 0.00 pouce
Profondeur de la couche neigeuse Non disponible.
UV 13 sur 12
Pollen Non disponible.
Qualité de l'air Non disponible.
Flu Activity Non disponible.
METAR DAOB 031200Z 10011KT 9999 FEW023 38/06 Q1023

More Conditions Fewer Conditions

10-Day Weather Forecast

×

Almanac

Astronomie

Jul. 03, 2015 Lever Coucher
Temps réel
Crépuscule civil
Crépuscule nautique
Crépuscule astronomique
Lune
Durée de lumière visible
Longueur du jour
Tomorrow will be .
, % of the Moon is Illuminated

Extrêmes aujourd'hui

Country Highs Country Lows

Community

WunderPhotos

Upload Photos

1,834,656 Photos téléchargées !

WunderBlogs® & News

Nearby

Qualité de l'air

  Qualité de l'air Indice de la qualité de l'air Polluant
Not available.

Épaisseur de neige

Station Depth Altitude

Activité sismique

Ville Distance Mag. Time & Date
Minimum magnitude displayed is 2.5.

Températures des eaux côtières

Lieu Température

Stations

Stations météo à proximité

Emplacement de la station Température Refroidissement éolien Point de rosée Humidité Vent Precip. Alt. Mise à jour Type